Wetterdaten: Woche 14.05.12 - 20.05.12 (KW20)
Datum Zeit Temp. Innen Temp. Aussen UV X Diff Temp. Feuchte Inne Feuchte Auss Sonnenschein Luftdruck Regen ab 0,1 Wind Sonnenschein T Regendauer Windben
14.05.2012 00:00 18,6 C 6,3 C 0,0 UV-I 0,0 C 45 % 81 % 0 % 1024,8 hPa 0,0 l/m 0,0 km/h (0 Bft) 0,00 h 0,00 h 0,0 km/h (0 Bft)
14.05.2012 01:00 18,3 C 5,7 C 0,0 UV-I 0,0 C 46 % 85 % 0 % 1024,1 hPa 0,0 l/m 0,0 km/h (0 Bft) 0,00 h 0,00 h 0,0 km/h (0 Bft)
14.05.2012 02:00 18,1 C 5,1 C 0,0 UV-I 0,0 C 46 % 88 % 0 % 1023,4 hPa 0,0 l/m 0,0 km/h (0 Bft) 0,00 h 0,00 h 0,0 km/h (0 Bft)
14.05.2012 03:00 17,9 C 4,7 C 0,0 UV-I 0,0 C 47 % 89 % 0 % 1022,5 hPa 0,0 l/m 0,0 km/h (0 Bft) 0,00 h 0,00 h 0,0 km/h (0 Bft)
14.05.2012 04:00 17,8 C 4,7 C 0,0 UV-I 0,0 C 46 % 90 % 0 % 1022,1 hPa 0,0 l/m 0,3 km/h (0 Bft) 0,00 h 0,00 h 0,8 km/h (0 Bft)
14.05.2012 05:00 17,6 C 4,5 C 0,0 UV-I 0,0 C 46 % 90 % 0 % 1021,3 hPa 0,0 l/m 0,6 km/h (0 Bft) 0,00 h 0,00 h 1,7 km/h (1 Bft)
14.05.2012 06:00 17,4 C 4,6 C 0,0 UV-I 0,0 C 46 % 90 % 0 % 1020,9 hPa 0,0 l/m 2,0 km/h (1 Bft) 0,00 h 0,00 h 4,3 km/h (1 Bft)
14.05.2012 07:00 17,2 C 5,6 C 0,1 UV-I 0,0 C 45 % 90 % 1 % 1020,9 hPa 0,0 l/m 3,0 km/h (1 Bft) 0,00 h 0,00 h 6,9 km/h (2 Bft)
14.05.2012 08:00 17,2 C 8,7 C 0,8 UV-I 4,2 C 45 % 84 % 65 % 1020,7 hPa 0,0 l/m 1,7 km/h (1 Bft) 0,57 h 0,00 h 3,1 km/h (1 Bft)
14.05.2012 09:00 17,4 C 11,7 C 2,2 UV-I 7,9 C 44 % 71 % 100 % 1020,3 hPa 0,0 l/m 2,7 km/h (1 Bft) 1,00 h 0,00 h 8,4 km/h (2 Bft)
14.05.2012 10:00 17,6 C 14,0 C 4,0 UV-I 8,2 C 43 % 62 % 100 % 1019,5 hPa 0,0 l/m 3,9 km/h (1 Bft) 1,00 h 0,00 h 8,4 km/h (2 Bft)
14.05.2012 11:00 17,7 C 15,1 C 3,6 UV-I 7,1 C 43 % 56 % 100 % 1018,7 hPa 0,0 l/m 4,1 km/h (1 Bft) 1,00 h 0,00 h 8,8 km/h (2 Bft)
14.05.2012 12:00 18,0 C 16,3 C 2,5 UV-I 6,5 C 42 % 51 % 100 % 1018,1 hPa 0,0 l/m 6,1 km/h (2 Bft) 1,00 h 0,00 h 11,3 km/h (2 Bft)
14.05.2012 13:00 18,8 C 17,5 C 2,4 UV-I 5,9 C 41 % 48 % 100 % 1017,3 hPa 0,0 l/m 6,0 km/h (2 Bft) 1,00 h 0,00 h 9,5 km/h (2 Bft)
14.05.2012 14:00 20,4 C 18,6 C 2,4 UV-I 5,7 C 38 % 45 % 100 % 1015,4 hPa 0,0 l/m 5,6 km/h (1 Bft) 1,00 h 0,00 h 10,2 km/h (2 Bft)
14.05.2012 15:00 22,4 C 19,3 C 2,8 UV-I 5,7 C 34 % 41 % 100 % 1015,0 hPa 0,0 l/m 5,9 km/h (2 Bft) 1,00 h 0,00 h 12,2 km/h (2 Bft)
14.05.2012 16:00 23,8 C 19,9 C 3,9 UV-I 5,4 C 31 % 40 % 100 % 1013,7 hPa 0,0 l/m 6,1 km/h (2 Bft) 1,00 h 0,00 h 11,4 km/h (2 Bft)
14.05.2012 17:00 24,2 C 20,0 C 3,3 UV-I 5,0 C 31 % 39 % 100 % 1012,6 hPa 0,0 l/m 5,1 km/h (1 Bft) 1,00 h 0,00 h 10,3 km/h (2 Bft)
14.05.2012 18:00 23,4 C 19,2 C 0,9 UV-I 2,2 C 32 % 40 % 58 % 1012,9 hPa 0,0 l/m 3,6 km/h (1 Bft) 0,37 h 0,00 h 8,7 km/h (2 Bft)
14.05.2012 19:00 22,1 C 18,3 C 0,3 UV-I 0,0 C 33 % 42 % 0 % 1012,4 hPa 0,0 l/m 3,3 km/h (1 Bft) 0,00 h 0,00 h 6,6 km/h (2 Bft)
14.05.2012 20:00 21,3 C 17,2 C 0,0 UV-I 0,0 C 35 % 46 % 0 % 1012,1 hPa 0,0 l/m 0,7 km/h (0 Bft) 0,00 h 0,00 h 1,6 km/h (1 Bft)
14.05.2012 21:00 20,6 C 15,1 C 0,0 UV-I 0,0 C 38 % 53 % 0 % 1012,3 hPa 0,0 l/m 0,0 km/h (0 Bft) 0,00 h 0,00 h 0,0 km/h (0 Bft)
14.05.2012 22:00 20,1 C 13,0 C 0,0 UV-I 0,0 C 41 % 62 % 0 % 1012,4 hPa 0,0 l/m 0,0 km/h (0 Bft) 0,00 h 0,00 h 0,0 km/h (0 Bft)
14.05.2012 23:00 19,7 C 11,6 C 0,0 UV-I 0,0 C 42 % 66 % 0 % 1012,2 hPa 0,0 l/m 0,0 km/h (0 Bft) 0,00 h 0,00 h 0,0 km/h (0 Bft)
15.05.2012 00:00 19,5 C 11,0 C 0,0 UV-I 0,0 C 43 % 71 % 0 % 1011,9 hPa 0,0 l/m 0,4 km/h (0 Bft) 0,00 h 0,00 h 1,5 km/h (1 Bft)
15.05.2012 01:00 19,3 C 10,2 C 0,0 UV-I 0,0 C 44 % 76 % 0 % 1011,9 hPa 0,0 l/m 0,0 km/h (0 Bft) 0,00 h 0,00 h 0,4 km/h (0 Bft)
15.05.2012 02:00 19,0 C 9,2 C 0,0 UV-I 0,0 C 45 % 80 % 0 % 1011,3 hPa 0,0 l/m 0,0 km/h (0 Bft) 0,00 h 0,00 h 0,0 km/h (0 Bft)
15.05.2012 03:00 18,7 C 9,0 C 0,0 UV-I 0,0 C 46 % 82 % 0 % 1010,8 hPa 0,0 l/m 0,0 km/h (0 Bft) 0,00 h 0,00 h 0,0 km/h (0 Bft)
15.05.2012 04:00 18,6 C 9,1 C 0,0 UV-I 0,0 C 47 % 84 % 0 % 1010,3 hPa 0,0 l/m 0,0 km/h (0 Bft) 0,00 h 0,30 h 0,0 km/h (0 Bft)
15.05.2012 05:00 18,4 C 8,9 C 0,0 UV-I 0,0 C 49 % 86 % 0 % 1010,0 hPa 0,0 l/m 0,1 km/h (0 Bft) 0,00 h 0,00 h 0,3 km/h (0 Bft)
15.05.2012 06:00 18,3 C 9,0 C 0,0 UV-I 0,0 C 49 % 87 % 0 % 1009,9 hPa 0,0 l/m 0,5 km/h (0 Bft) 0,00 h 0,07 h 3,2 km/h (1 Bft)
15.05.2012 07:00 18,2 C 9,3 C 0,0 UV-I 0,2 C 49 % 87 % 6 % 1009,7 hPa 0,0 l/m 1,3 km/h (1 Bft) 0,00 h 0,00 h 4,5 km/h (1 Bft)
15.05.2012 08:00 18,0 C 9,8 C 0,2 UV-I 1,6 C 48 % 84 % 45 % 1009,2 hPa 0,0 l/m 4,0 km/h (1 Bft) 0,00 h 0,00 h 9,8 km/h (2 Bft)
15.05.2012 09:00 18,0 C 10,9 C 1,6 UV-I 4,2 C 47 % 78 % 88 % 1008,9 hPa 0,0 l/m 5,7 km/h (1 Bft) 0,70 h 0,00 h 10,1 km/h (2 Bft)
15.05.2012 10:00 18,0 C 11,9 C 2,1 UV-I 4,7 C 46 % 72 % 97 % 1008,4 hPa 0,0 l/m 6,4 km/h (2 Bft) 0,93 h 0,00 h 10,8 km/h (2 Bft)
15.05.2012 11:00 18,0 C 13,0 C 2,7 UV-I 5,7 C 46 % 68 % 99 % 1007,9 hPa 0,0 l/m 7,1 km/h (2 Bft) 1,00 h 0,03 h 15,2 km/h (3 Bft)
15.05.2012 12:00 18,3 C 10,7 C 0,8 UV-I 2,3 C 46 % 71 % 46 % 1008,0 hPa 1,2 l/m 8,9 km/h (2 Bft) 0,37 h 0,57 h 15,6 km/h (3 Bft)
15.05.2012 13:00 18,2 C 7,8 C 0,8 UV-I 0,4 C 47 % 86 % 12 % 1008,9 hPa 1,4 l/m 5,0 km/h (1 Bft) 0,00 h 0,57 h 9,3 km/h (2 Bft)
15.05.2012 14:00 18,7 C 9,4 C 1,2 UV-I 2,7 C 48 % 87 % 65 % 1008,5 hPa 1,4 l/m 4,9 km/h (1 Bft) 0,43 h 0,30 h 9,9 km/h (2 Bft)
15.05.2012 15:00 18,3 C 8,8 C 0,6 UV-I 1,0 C 47 % 87 % 29 % 1009,3 hPa 1,7 l/m 4,2 km/h (1 Bft) 0,00 h 0,00 h 7,1 km/h (2 Bft)
15.05.2012 16:00 18,2 C 9,4 C 0,9 UV-I 1,8 C 48 % 86 % 52 % 1009,6 hPa 0,1 l/m 6,8 km/h (2 Bft) 0,00 h 0,10 h 12,2 km/h (2 Bft)
15.05.2012 17:00 18,9 C 9,8 C 1,0 UV-I 2,3 C 47 % 83 % 58 % 1009,4 hPa 0,0 l/m 5,8 km/h (2 Bft) 0,43 h 0,17 h 10,7 km/h (2 Bft)
15.05.2012 18:00 18,7 C 9,6 C 0,5 UV-I 1,2 C 46 % 83 % 34 % 1010,1 hPa 0,0 l/m 5,2 km/h (1 Bft) 0,00 h 0,00 h 10,8 km/h (2 Bft)
15.05.2012 19:00 18,5 C 9,9 C 0,1 UV-I 0,6 C 47 % 81 % 17 % 1010,6 hPa 0,0 l/m 4,4 km/h (1 Bft) 0,00 h 0,00 h 9,1 km/h (2 Bft)
15.05.2012 20:00 18,1 C 9,0 C 0,0 UV-I 0,0 C 46 % 82 % 0 % 1011,5 hPa 0,0 l/m 3,8 km/h (1 Bft) 0,00 h 0,00 h 8,5 km/h (2 Bft)
15.05.2012 21:00 17,7 C 8,6 C 0,0 UV-I 0,0 C 47 % 84 % 0 % 1012,3 hPa 0,0 l/m 1,8 km/h (1 Bft) 0,00 h 0,00 h 4,9 km/h (1 Bft)
15.05.2012 22:00 17,3 C 8,4 C 0,0 UV-I 0,0 C 49 % 87 % 0 % 1013,1 hPa 0,0 l/m 3,3 km/h (1 Bft) 0,00 h 0,00 h 7,1 km/h (2 Bft)
15.05.2012 23:00 17,0 C 7,9 C 0,0 UV-I 0,0 C 51 % 90 % 0 % 1013,6 hPa 0,6 l/m 3,7 km/h (1 Bft) 0,00 h 0,37 h 7,5 km/h (2 Bft)
16.05.2012 00:00 16,8 C 7,5 C 0,0 UV-I 0,0 C 53 % 92 % 0 % 1014,4 hPa 0,7 l/m 0,7 km/h (0 Bft) 0,00 h 0,00 h 1,8 km/h (1 Bft)
16.05.2012 01:00 16,8 C 7,4 C 0,0 UV-I 0,0 C 53 % 93 % 0 % 1014,9 hPa 0,5 l/m 1,3 km/h (1 Bft) 0,00 h 0,17 h 4,8 km/h (1 Bft)
16.05.2012 02:00 16,7 C 7,2 C 0,0 UV-I 0,0 C 53 % 94 % 0 % 1015,6 hPa 0,5 l/m 4,8 km/h (1 Bft) 0,00 h 0,10 h 11,1 km/h (2 Bft)
16.05.2012 03:00 16,7 C 6,7 C 0,0 UV-I 0,0 C 53 % 94 % 0 % 1016,3 hPa 0,5 l/m 3,1 km/h (1 Bft) 0,00 h 0,43 h 6,0 km/h (2 Bft)
16.05.2012 04:00 16,5 C 6,5 C 0,0 UV-I 0,0 C 52 % 94 % 0 % 1016,8 hPa 0,5 l/m 1,4 km/h (1 Bft) 0,00 h 0,00 h 4,1 km/h (1 Bft)
16.05.2012 05:00 16,3 C 6,0 C 0,0 UV-I 0,0 C 52 % 94 % 0 % 1017,7 hPa 0,6 l/m 1,9 km/h (1 Bft) 0,00 h 0,00 h 7,2 km/h (2 Bft)
16.05.2012 06:00 16,2 C 5,6 C 0,0 UV-I 0,0 C 51 % 94 % 0 % 1018,4 hPa 0,2 l/m 2,2 km/h (1 Bft) 0,00 h 0,00 h 6,0 km/h (2 Bft)
16.05.2012 07:00 16,1 C 6,2 C 0,0 UV-I 0,0 C 51 % 94 % 0 % 1019,3 hPa 0,0 l/m 3,4 km/h (1 Bft) 0,00 h 0,03 h 7,5 km/h (2 Bft)
16.05.2012 08:00 16,2 C 7,0 C 0,2 UV-I 0,7 C 50 % 92 % 20 % 1019,9 hPa 0,0 l/m 4,8 km/h (1 Bft) 0,00 h 0,00 h 10,0 km/h (2 Bft)
16.05.2012 09:00 16,5 C 8,4 C 0,7 UV-I 3,2 C 50 % 88 % 80 % 1020,4 hPa 0,0 l/m 6,7 km/h (2 Bft) 0,60 h 0,00 h 14,9 km/h (3 Bft)
16.05.2012 10:00 16,7 C 9,6 C 2,4 UV-I 4,7 C 49 % 82 % 87 % 1020,8 hPa 0,0 l/m 8,1 km/h (2 Bft) 0,77 h 0,00 h 15,0 km/h (3 Bft)
16.05.2012 11:00 16,8 C 9,1 C 1,5 UV-I 2,6 C 50 % 82 % 51 % 1021,4 hPa 0,2 l/m 6,2 km/h (2 Bft) 0,40 h 0,27 h 13,9 km/h (3 Bft)
16.05.2012 12:00 17,0 C 10,0 C 1,3 UV-I 2,8 C 50 % 83 % 66 % 1021,4 hPa 0,2 l/m 8,9 km/h (2 Bft) 0,43 h 0,17 h 17,0 km/h (3 Bft)
16.05.2012 13:00 17,3 C 11,2 C 1,9 UV-I 4,0 C 49 % 78 % 87 % 1021,8 hPa 0,2 l/m 9,1 km/h (2 Bft) 0,77 h 0,07 h 16,9 km/h (3 Bft)
16.05.2012 14:00 18,6 C 13,6 C 2,6 UV-I 5,1 C 46 % 62 % 100 % 1021,3 hPa 0,2 l/m 11,1 km/h (2 Bft) 1,00 h 0,00 h 21,6 km/h (4 Bft)
16.05.2012 15:00 19,7 C 13,3 C 2,2 UV-I 4,1 C 41 % 58 % 97 % 1022,0 hPa 0,1 l/m 11,1 km/h (2 Bft) 1,00 h 0,00 h 19,7 km/h (3 Bft)
16.05.2012 16:00 20,5 C 13,3 C 2,7 UV-I 3,9 C 38 % 56 % 91 % 1022,2 hPa 0,1 l/m 11,4 km/h (2 Bft) 0,77 h 0,00 h 21,5 km/h (4 Bft)
16.05.2012 17:00 20,7 C 13,0 C 2,4 UV-I 3,2 C 36 % 53 % 88 % 1022,2 hPa 0,1 l/m 10,8 km/h (2 Bft) 0,83 h 0,00 h 19,5 km/h (3 Bft)
16.05.2012 18:00 20,3 C 12,6 C 0,8 UV-I 2,0 C 35 % 52 % 57 % 1023,1 hPa 0,1 l/m 9,1 km/h (2 Bft) 0,20 h 0,00 h 16,3 km/h (3 Bft)
16.05.2012 19:00 19,3 C 11,6 C 0,2 UV-I 0,1 C 36 % 57 % 4 % 1023,6 hPa 0,0 l/m 8,1 km/h (2 Bft) 0,00 h 0,00 h 13,2 km/h (3 Bft)
16.05.2012 20:00 18,5 C 10,5 C 0,0 UV-I 0,0 C 38 % 58 % 0 % 1024,1 hPa 0,0 l/m 4,9 km/h (1 Bft) 0,00 h 0,00 h 11,7 km/h (2 Bft)
16.05.2012 21:00 17,9 C 9,1 C 0,0 UV-I 0,0 C 39 % 62 % 0 % 1024,5 hPa 0,1 l/m 2,5 km/h (1 Bft) 0,00 h 0,00 h 4,6 km/h (1 Bft)
16.05.2012 22:00 17,3 C 7,3 C 0,0 UV-I 0,0 C 41 % 68 % 0 % 1024,8 hPa 0,0 l/m 0,1 km/h (0 Bft) 0,00 h 0,00 h 0,0 km/h (0 Bft)
16.05.2012 23:00 16,8 C 5,9 C 0,0 UV-I 0,0 C 42 % 73 % 0 % 1024,9 hPa 0,1 l/m 0,0 km/h (0 Bft) 0,00 h 0,00 h 0,0 km/h (0 Bft)
17.05.2012 00:00 16,4 C 4,7 C 0,0 UV-I 0,0 C 44 % 80 % 0 % 1025,0 hPa 0,0 l/m 0,0 km/h (0 Bft) 0,00 h 0,00 h 0,0 km/h (0 Bft)
17.05.2012 01:00 16,1 C 3,9 C 0,0 UV-I 0,0 C 45 % 84 % 0 % 1024,8 hPa 0,0 l/m 0,0 km/h (0 Bft) 0,00 h 0,00 h 0,0 km/h (0 Bft)
17.05.2012 02:00 15,8 C 3,4 C 0,0 UV-I 0,0 C 45 % 86 % 0 % 1024,8 hPa 0,0 l/m 0,0 km/h (0 Bft) 0,00 h 0,00 h 0,0 km/h (0 Bft)
17.05.2012 03:00 15,6 C 2,9 C 0,0 UV-I 0,0 C 45 % 88 % 0 % 1024,4 hPa 0,0 l/m 0,0 km/h (0 Bft) 0,00 h 0,00 h 0,0 km/h (0 Bft)
17.05.2012 04:00 15,3 C 2,5 C 0,0 UV-I 0,0 C 45 % 89 % 0 % 1024,2 hPa 0,0 l/m 0,0 km/h (0 Bft) 0,00 h 0,00 h 0,0 km/h (0 Bft)
17.05.2012 05:00 15,2 C 2,3 C 0,0 UV-I 0,0 C 46 % 90 % 0 % 1024,2 hPa 0,0 l/m 0,0 km/h (0 Bft) 0,00 h 0,00 h 0,0 km/h (0 Bft)
17.05.2012 06:00 15,0 C 2,1 C 0,0 UV-I 0,0 C 46 % 91 % 0 % 1023,9 hPa 0,0 l/m 0,0 km/h (0 Bft) 0,00 h 0,00 h 0,0 km/h (0 Bft)
17.05.2012 07:00 15,0 C 3,7 C 0,0 UV-I 0,0 C 47 % 93 % 0 % 1023,5 hPa 0,0 l/m 0,9 km/h (0 Bft) 0,00 h 0,00 h 4,1 km/h (1 Bft)
17.05.2012 08:00 15,1 C 6,8 C 0,3 UV-I 5,2 C 47 % 90 % 69 % 1023,4 hPa 0,0 l/m 2,9 km/h (1 Bft) 0,67 h 0,00 h 6,8 km/h (2 Bft)
17.05.2012 09:00 15,3 C 10,4 C 2,4 UV-I 9,3 C 46 % 79 % 100 % 1023,3 hPa 0,0 l/m 1,9 km/h (1 Bft) 0,83 h 0,00 h 4,9 km/h (1 Bft)
17.05.2012 10:00 15,8 C 12,6 C 4,4 UV-I 8,3 C 45 % 63 % 100 % 1022,8 hPa 0,0 l/m 3,3 km/h (1 Bft) 0,40 h 0,00 h 5,9 km/h (2 Bft)
17.05.2012 11:00 16,2 C 13,8 C 3,4 UV-I 6,9 C 44 % 53 % 100 % 1022,0 hPa 0,0 l/m 5,1 km/h (1 Bft) 0,52 h 0,00 h 8,6 km/h (2 Bft)
17.05.2012 12:00 16,8 C 14,0 C 2,3 UV-I 5,6 C 42 % 52 % 100 % 1021,4 hPa 0,0 l/m 5,2 km/h (1 Bft) 1,00 h 0,00 h 9,4 km/h (2 Bft)
17.05.2012 13:00 17,4 C 14,8 C 2,1 UV-I 4,7 C 41 % 48 % 100 % 1020,7 hPa 0,0 l/m 5,5 km/h (1 Bft) 1,00 h 0,00 h 11,4 km/h (2 Bft)
17.05.2012 14:00 18,7 C 16,1 C 2,5 UV-I 5,6 C 39 % 45 % 100 % 1019,0 hPa 0,0 l/m 6,5 km/h (2 Bft) 1,00 h 0,00 h 12,2 km/h (2 Bft)
17.05.2012 15:00 20,5 C 16,8 C 2,7 UV-I 5,2 C 36 % 43 % 100 % 1018,5 hPa 0,0 l/m 7,3 km/h (2 Bft) 1,00 h 0,00 h 12,4 km/h (3 Bft)
17.05.2012 16:00 21,5 C 17,2 C 2,9 UV-I 4,3 C 34 % 40 % 99 % 1017,3 hPa 0,0 l/m 6,5 km/h (2 Bft) 1,00 h 0,00 h 11,4 km/h (2 Bft)
17.05.2012 17:00 21,1 C 16,8 C 1,7 UV-I 2,9 C 35 % 42 % 83 % 1016,5 hPa 0,0 l/m 5,1 km/h (1 Bft) 0,77 h 0,00 h 9,3 km/h (2 Bft)
17.05.2012 18:00 20,4 C 16,3 C 0,5 UV-I 1,1 C 35 % 44 % 32 % 1015,7 hPa 0,0 l/m 4,5 km/h (1 Bft) 0,00 h 0,00 h 10,2 km/h (2 Bft)
17.05.2012 19:00 19,7 C 15,9 C 0,0 UV-I 0,1 C 36 % 44 % 3 % 1014,6 hPa 0,0 l/m 4,2 km/h (1 Bft) 0,00 h 0,00 h 8,2 km/h (2 Bft)
17.05.2012 20:00 19,1 C 15,5 C 0,0 UV-I 0,0 C 38 % 49 % 0 % 1014,0 hPa 0,0 l/m 3,0 km/h (1 Bft) 0,00 h 0,00 h 7,1 km/h (2 Bft)
17.05.2012 21:00 18,7 C 14,9 C 0,0 UV-I 0,0 C 39 % 51 % 0 % 1013,5 hPa 0,0 l/m 5,4 km/h (1 Bft) 0,00 h 0,00 h 10,2 km/h (2 Bft)
17.05.2012 22:00 18,3 C 14,0 C 0,0 UV-I 0,0 C 40 % 52 % 0 % 1013,1 hPa 0,0 l/m 2,8 km/h (1 Bft) 0,00 h 0,00 h 4,6 km/h (1 Bft)
17.05.2012 23:00 18,1 C 13,4 C 0,0 UV-I 0,0 C 41 % 55 % 0 % 1012,6 hPa 0,0 l/m 3,9 km/h (1 Bft) 0,00 h 0,00 h 6,5 km/h (2 Bft)
18.05.2012 00:00 18,0 C 13,0 C 0,0 UV-I 0,0 C 41 % 56 % 0 % 1012,2 hPa 0,0 l/m 3,3 km/h (1 Bft) 0,00 h 0,00 h 8,0 km/h (2 Bft)
18.05.2012 01:00 17,8 C 12,7 C 0,0 UV-I 0,0 C 41 % 56 % 0 % 1011,1 hPa 0,0 l/m 6,6 km/h (2 Bft) 0,00 h 0,00 h 11,0 km/h (2 Bft)
18.05.2012 02:00 17,6 C 12,7 C 0,0 UV-I 0,0 C 41 % 56 % 0 % 1010,3 hPa 0,0 l/m 7,9 km/h (2 Bft) 0,00 h 0,00 h 14,4 km/h (3 Bft)
18.05.2012 03:00 17,5 C 12,6 C 0,0 UV-I 0,0 C 41 % 56 % 0 % 1009,5 hPa 0,0 l/m 8,3 km/h (2 Bft) 0,00 h 0,00 h 14,3 km/h (3 Bft)
18.05.2012 04:00 17,3 C 12,4 C 0,0 UV-I 0,0 C 41 % 57 % 0 % 1008,8 hPa 0,0 l/m 8,6 km/h (2 Bft) 0,00 h 0,00 h 15,4 km/h (3 Bft)
18.05.2012 05:00 17,2 C 12,3 C 0,0 UV-I 0,0 C 41 % 57 % 0 % 1008,4 hPa 0,0 l/m 9,3 km/h (2 Bft) 0,00 h 0,00 h 15,5 km/h (3 Bft)
18.05.2012 06:00 17,1 C 12,0 C 0,0 UV-I 0,0 C 41 % 59 % 0 % 1007,6 hPa 0,0 l/m 9,7 km/h (2 Bft) 0,00 h 0,00 h 15,1 km/h (3 Bft)
18.05.2012 07:00 17,1 C 11,9 C 0,0 UV-I 0,0 C 42 % 63 % 0 % 1007,8 hPa 0,0 l/m 10,3 km/h (2 Bft) 0,00 h 0,00 h 18,2 km/h (3 Bft)
18.05.2012 08:00 17,0 C 12,2 C 0,2 UV-I 0,6 C 44 % 64 % 18 % 1007,6 hPa 0,0 l/m 11,7 km/h (2 Bft) 0,00 h 0,00 h 20,9 km/h (4 Bft)
18.05.2012 09:00 17,2 C 12,6 C 0,7 UV-I 1,4 C 45 % 67 % 41 % 1007,6 hPa 0,0 l/m 13,9 km/h (3 Bft) 0,07 h 0,00 h 22,4 km/h (4 Bft)
18.05.2012 10:00 17,4 C 13,9 C 2,2 UV-I 3,8 C 47 % 66 % 97 % 1007,4 hPa 0,0 l/m 14,4 km/h (3 Bft) 0,97 h 0,00 h 23,7 km/h (4 Bft)
18.05.2012 11:00 17,6 C 14,9 C 3,3 UV-I 4,4 C 47 % 64 % 99 % 1007,1 hPa 0,0 l/m 15,8 km/h (3 Bft) 0,97 h 0,00 h 25,0 km/h (4 Bft)
18.05.2012 12:00 17,9 C 16,9 C 2,4 UV-I 4,6 C 48 % 62 % 100 % 1006,8 hPa 0,0 l/m 13,3 km/h (3 Bft) 1,00 h 0,00 h 22,6 km/h (4 Bft)
18.05.2012 13:00 18,7 C 18,5 C 2,0 UV-I 3,6 C 48 % 59 % 93 % 1006,6 hPa 0,0 l/m 10,1 km/h (2 Bft) 0,87 h 0,00 h 15,4 km/h (3 Bft)
18.05.2012 14:00 19,2 C 18,1 C 0,5 UV-I 0,9 C 49 % 62 % 26 % 1006,9 hPa 0,0 l/m 8,8 km/h (2 Bft) 0,00 h 0,03 h 15,4 km/h (3 Bft)
18.05.2012 15:00 19,1 C 17,0 C 0,7 UV-I 1,3 C 50 % 66 % 36 % 1007,7 hPa 0,0 l/m 7,0 km/h (2 Bft) 0,00 h 0,00 h 11,8 km/h (2 Bft)
18.05.2012 16:00 19,0 C 17,0 C 0,4 UV-I 1,0 C 51 % 67 % 29 % 1008,0 hPa 0,0 l/m 4,5 km/h (1 Bft) 0,00 h 0,00 h 8,0 km/h (2 Bft)
18.05.2012 17:00 19,0 C 17,2 C 0,4 UV-I 1,0 C 51 % 66 % 28 % 1008,0 hPa 0,0 l/m 6,1 km/h (2 Bft) 0,00 h 0,07 h 9,9 km/h (2 Bft)
18.05.2012 18:00 19,0 C 17,1 C 0,1 UV-I 0,4 C 51 % 66 % 11 % 1008,2 hPa 0,0 l/m 5,5 km/h (1 Bft) 0,00 h 0,00 h 9,2 km/h (2 Bft)
18.05.2012 19:00 19,0 C 17,2 C 0,1 UV-I 0,4 C 52 % 66 % 11 % 1008,3 hPa 0,0 l/m 4,8 km/h (1 Bft) 0,00 h 0,00 h 9,9 km/h (2 Bft)
18.05.2012 20:00 18,9 C 16,9 C 0,0 UV-I 0,0 C 52 % 66 % 0 % 1008,8 hPa 0,0 l/m 3,1 km/h (1 Bft) 0,00 h 0,00 h 6,7 km/h (2 Bft)
18.05.2012 21:00 18,8 C 16,3 C 0,0 UV-I 0,0 C 53 % 69 % 0 % 1009,4 hPa 0,0 l/m 2,4 km/h (1 Bft) 0,00 h 0,00 h 5,9 km/h (2 Bft)
18.05.2012 22:00 18,6 C 15,7 C 0,0 UV-I 0,0 C 54 % 73 % 0 % 1009,7 hPa 0,0 l/m 1,6 km/h (1 Bft) 0,00 h 0,00 h 4,4 km/h (1 Bft)
18.05.2012 23:00 18,6 C 15,1 C 0,0 UV-I 0,0 C 54 % 75 % 0 % 1009,9 hPa 0,0 l/m 0,6 km/h (0 Bft) 0,00 h 0,00 h 3,0 km/h (1 Bft)
19.05.2012 00:00 18,5 C 14,5 C 0,0 UV-I 0,0 C 55 % 79 % 0 % 1010,5 hPa 0,0 l/m 2,1 km/h (1 Bft) 0,00 h 0,00 h 5,3 km/h (1 Bft)
19.05.2012 01:00 18,4 C 14,1 C 0,0 UV-I 0,0 C 56 % 81 % 0 % 1010,6 hPa 0,0 l/m 0,3 km/h (0 Bft) 0,00 h 0,00 h 0,9 km/h (0 Bft)
19.05.2012 02:00 18,4 C 13,7 C 0,0 UV-I 0,0 C 56 % 83 % 0 % 1010,7 hPa 0,0 l/m 0,9 km/h (0 Bft) 0,00 h 0,00 h 3,6 km/h (1 Bft)
19.05.2012 03:00 18,4 C 13,5 C 0,0 UV-I 0,0 C 57 % 84 % 0 % 1010,9 hPa 0,0 l/m 0,7 km/h (0 Bft) 0,00 h 0,10 h 2,4 km/h (1 Bft)
19.05.2012 04:00 18,4 C 13,2 C 0,0 UV-I 0,0 C 57 % 86 % 0 % 1010,9 hPa 0,0 l/m 0,7 km/h (0 Bft) 0,00 h 0,00 h 2,3 km/h (1 Bft)
19.05.2012 05:00 18,3 C 12,9 C 0,0 UV-I 0,0 C 58 % 87 % 0 % 1010,8 hPa 0,0 l/m 2,3 km/h (1 Bft) 0,00 h 0,00 h 6,0 km/h (2 Bft)
19.05.2012 06:00 18,2 C 12,7 C 0,0 UV-I 0,0 C 59 % 88 % 0 % 1011,4 hPa 0,0 l/m 2,8 km/h (1 Bft) 0,00 h 0,00 h 6,9 km/h (2 Bft)
19.05.2012 07:00 18,1 C 13,0 C 0,0 UV-I 0,4 C 59 % 89 % 10 % 1011,6 hPa 0,0 l/m 3,8 km/h (1 Bft) 0,00 h 0,00 h 8,0 km/h (2 Bft)
19.05.2012 08:00 18,2 C 14,3 C 0,6 UV-I 2,7 C 59 % 87 % 66 % 1011,8 hPa 0,0 l/m 2,9 km/h (1 Bft) 0,30 h 0,00 h 5,7 km/h (1 Bft)
19.05.2012 09:00 18,3 C 16,7 C 2,4 UV-I 7,8 C 59 % 80 % 100 % 1011,7 hPa 0,0 l/m 2,1 km/h (1 Bft) 1,00 h 0,00 h 6,2 km/h (2 Bft)
19.05.2012 10:00 18,6 C 17,9 C 3,4 UV-I 6,8 C 59 % 73 % 100 % 1011,8 hPa 0,0 l/m 4,4 km/h (1 Bft) 1,00 h 0,00 h 8,2 km/h (2 Bft)
19.05.2012 11:00 18,9 C 18,9 C 3,1 UV-I 5,6 C 59 % 70 % 100 % 1011,3 hPa 0,0 l/m 5,3 km/h (1 Bft) 1,00 h 0,00 h 9,2 km/h (2 Bft)
19.05.2012 12:00 19,2 C 20,0 C 2,1 UV-I 4,6 C 58 % 66 % 100 % 1011,1 hPa 0,0 l/m 4,7 km/h (1 Bft) 1,00 h 0,00 h 9,5 km/h (2 Bft)
19.05.2012 13:00 19,8 C 21,4 C 2,2 UV-I 5,9 C 56 % 59 % 100 % 1010,7 hPa 0,0 l/m 2,9 km/h (1 Bft) 1,00 h 0,00 h 6,7 km/h (2 Bft)
19.05.2012 14:00 20,4 C 21,7 C 2,0 UV-I 4,2 C 54 % 58 % 96 % 1009,7 hPa 0,0 l/m 3,0 km/h (1 Bft) 0,87 h 0,00 h 4,6 km/h (1 Bft)
19.05.2012 15:00 21,2 C 22,6 C 2,4 UV-I 4,6 C 52 % 55 % 100 % 1009,5 hPa 0,0 l/m 4,0 km/h (1 Bft) 1,00 h 0,00 h 7,2 km/h (2 Bft)
19.05.2012 16:00 21,9 C 22,8 C 1,7 UV-I 3,0 C 50 % 55 % 83 % 1009,0 hPa 0,0 l/m 2,8 km/h (1 Bft) 0,57 h 0,00 h 6,5 km/h (2 Bft)
19.05.2012 17:00 22,1 C 23,2 C 1,8 UV-I 3,5 C 49 % 55 % 73 % 1008,2 hPa 0,0 l/m 2,4 km/h (1 Bft) 0,47 h 0,00 h 5,7 km/h (1 Bft)
19.05.2012 18:00 21,7 C 22,4 C 0,6 UV-I 1,0 C 50 % 57 % 29 % 1008,7 hPa 0,0 l/m 1,7 km/h (1 Bft) 0,00 h 0,00 h 4,8 km/h (1 Bft)
19.05.2012 19:00 21,2 C 21,7 C 0,3 UV-I 0,0 C 51 % 60 % 0 % 1008,3 hPa 0,0 l/m 0,3 km/h (0 Bft) 0,00 h 0,00 h 1,0 km/h (0 Bft)
19.05.2012 20:00 20,8 C 20,8 C 0,0 UV-I 0,0 C 52 % 64 % 0 % 1008,3 hPa 0,0 l/m 1,3 km/h (1 Bft) 0,00 h 0,00 h 2,9 km/h (1 Bft)
19.05.2012 21:00 20,4 C 19,0 C 0,0 UV-I 0,0 C 53 % 69 % 0 % 1008,5 hPa 0,0 l/m 1,8 km/h (1 Bft) 0,00 h 0,00 h 2,9 km/h (1 Bft)
19.05.2012 22:00 20,0 C 17,5 C 0,0 UV-I 0,0 C 54 % 72 % 0 % 1008,5 hPa 0,0 l/m 0,6 km/h (0 Bft) 0,00 h 0,00 h 0,9 km/h (0 Bft)
19.05.2012 23:00 19,8 C 15,9 C 0,0 UV-I 0,0 C 55 % 77 % 0 % 1008,4 hPa 0,0 l/m 0,1 km/h (0 Bft) 0,00 h 0,00 h 0,1 km/h (0 Bft)
20.05.2012 00:00 19,6 C 14,7 C 0,0 UV-I 0,0 C 57 % 82 % 0 % 1008,3 hPa 0,0 l/m 0,0 km/h (0 Bft) 0,00 h 0,00 h 0,0 km/h (0 Bft)
20.05.2012 01:00 19,6 C 14,5 C 0,0 UV-I 0,0 C 57 % 84 % 0 % 1008,1 hPa 0,0 l/m 0,0 km/h (0 Bft) 0,00 h 0,00 h 0,0 km/h (0 Bft)
20.05.2012 02:00 19,5 C 14,0 C 0,0 UV-I 0,0 C 58 % 86 % 0 % 1007,6 hPa 0,0 l/m 0,0 km/h (0 Bft) 0,00 h 0,00 h 0,0 km/h (0 Bft)
20.05.2012 03:00 19,3 C 13,7 C 0,0 UV-I 0,0 C 59 % 88 % 0 % 1007,6 hPa 0,0 l/m 0,0 km/h (0 Bft) 0,00 h 0,00 h 0,0 km/h (0 Bft)
20.05.2012 04:00 19,2 C 13,8 C 0,0 UV-I 0,0 C 59 % 89 % 0 % 1007,4 hPa 0,0 l/m 0,1 km/h (0 Bft) 0,00 h 0,00 h 0,6 km/h (0 Bft)
20.05.2012 05:00 19,2 C 13,7 C 0,0 UV-I 0,0 C 60 % 90 % 0 % 1006,9 hPa 0,0 l/m 0,0 km/h (0 Bft) 0,00 h 0,00 h 0,0 km/h (0 Bft)
20.05.2012 06:00 19,2 C 13,6 C 0,0 UV-I 0,0 C 60 % 90 % 0 % 1007,0 hPa 0,0 l/m 0,0 km/h (0 Bft) 0,00 h 0,00 h 0,0 km/h (0 Bft)
20.05.2012 07:00 19,2 C 14,5 C 0,0 UV-I 1,0 C 60 % 92 % 29 % 1006,9 hPa 0,0 l/m 0,0 km/h (0 Bft) 0,00 h 0,00 h 0,0 km/h (0 Bft)
20.05.2012 08:00 19,5 C 16,1 C 0,1 UV-I 1,1 C 60 % 90 % 31 % 1006,9 hPa 0,0 l/m 0,3 km/h (0 Bft) 0,00 h 0,00 h 1,3 km/h (1 Bft)
20.05.2012 09:00 19,7 C 17,6 C 1,1 UV-I 3,2 C 60 % 87 % 83 % 1006,9 hPa 0,0 l/m 1,3 km/h (1 Bft) 0,70 h 0,00 h 4,5 km/h (1 Bft)
20.05.2012 10:00 19,9 C 19,1 C 1,0 UV-I 3,4 C 60 % 80 % 91 % 1006,7 hPa 0,0 l/m 1,6 km/h (1 Bft) 0,80 h 0,00 h 4,3 km/h (1 Bft)
20.05.2012 11:00 20,2 C 20,0 C 2,0 UV-I 4,9 C 60 % 76 % 97 % 1006,3 hPa 0,0 l/m 2,3 km/h (1 Bft) 0,90 h 0,00 h 5,7 km/h (1 Bft)
20.05.2012 12:00 20,5 C 21,7 C 2,8 UV-I 7,3 C 59 % 72 % 100 % 1006,0 hPa 0,0 l/m 4,9 km/h (1 Bft) 1,00 h 0,00 h 8,4 km/h (2 Bft)
20.05.2012 13:00 20,9 C 23,6 C 2,7 UV-I 6,4 C 59 % 66 % 100 % 1005,7 hPa 0,0 l/m 2,7 km/h (1 Bft) 1,00 h 0,00 h 6,6 km/h (2 Bft)
20.05.2012 14:00 21,8 C 25,1 C 2,8 UV-I 7,0 C 57 % 57 % 100 % 1004,4 hPa 0,0 l/m 3,7 km/h (1 Bft) 1,00 h 0,00 h 8,6 km/h (2 Bft)
20.05.2012 15:00 23,2 C 26,0 C 2,8 UV-I 6,4 C 53 % 52 % 100 % 1003,9 hPa 0,0 l/m 3,5 km/h (1 Bft) 1,00 h 0,00 h 6,8 km/h (2 Bft)
20.05.2012 16:00 24,1 C 26,0 C 3,2 UV-I 5,2 C 50 % 50 % 100 % 1002,7 hPa 0,0 l/m 4,4 km/h (1 Bft) 1,00 h 0,00 h 9,0 km/h (2 Bft)
20.05.2012 17:00 24,3 C 26,1 C 2,1 UV-I 4,5 C 48 % 48 % 82 % 1002,7 hPa 0,0 l/m 3,5 km/h (1 Bft) 0,67 h 0,00 h 6,1 km/h (2 Bft)
20.05.2012 18:00 23,3 C 24,3 C 0,1 UV-I 0,3 C 50 % 54 % 8 % 1004,0 hPa 0,0 l/m 1,6 km/h (1 Bft) 0,00 h 0,20 h 3,6 km/h (1 Bft)
20.05.2012 19:00 22,5 C 19,7 C 0,0 UV-I 0,0 C 54 % 70 % 0 % 1004,3 hPa 0,0 l/m 4,9 km/h (1 Bft) 0,00 h 0,13 h 9,9 km/h (2 Bft)
20.05.2012 20:00 21,8 C 18,7 C 0,0 UV-I 0,0 C 55 % 74 % 0 % 1004,0 hPa 0,0 l/m 3,4 km/h (1 Bft) 0,00 h 0,27 h 6,2 km/h (2 Bft)
20.05.2012 21:00 21,3 C 18,5 C 0,0 UV-I 0,0 C 57 % 75 % 0 % 1004,7 hPa 0,0 l/m 4,2 km/h (1 Bft) 0,00 h 0,10 h 8,1 km/h (2 Bft)
20.05.2012 22:00 21,1 C 17,6 C 0,0 UV-I 0,0 C 58 % 79 % 0 % 1004,6 hPa 0,0 l/m 1,9 km/h (1 Bft) 0,00 h 0,00 h 3,7 km/h (1 Bft)
20.05.2012 23:00 20,8 C 16,3 C 0,0 UV-I 0,0 C 58 % 83 % 0 % 1004,3 hPa 0,0 l/m 0,0 km/h (0 Bft) 0,00 h 0,00 h 0,4 km/h (0 Bft)
Min-Datum _ 17.05.12 17.05.12 14.05.12 14.05.12 14.05.12 14.05.12 14.05.12 20.05.12 - 14.05.12 - - 14.05.12
_ Min-Zeit 06:32 06:22 00:00 00:00 16:20 16:48 00:00 16:58 - 00:00 - - 00:00
Minimum _ 14,9 C 1,9 C 0,0 UV-I 0,0 C 31 % 38 % 0 % 1002,2 hPa - 0,0 km/h (0 Bft) - - 0,0 km/h (0 Bft)
Max-Datum _ 20.05.12 20.05.12 17.05.12 17.05.12 20.05.12 16.05.12 14.05.12 16.05.12 15.05.12 16.05.12 14.05.12 15.05.12 16.05.12
_ Max-Zeit 17:18 17:14 10:37 09:22 07:54 02:08 08:26 22:38 15:08 16:46 08:26 04:16 11:10
Maximum _ 24,6 C 26,9 C 4,9 UV-I 9,8 C 61 % 94 % 100 % 1025,3 hPa 1,7 l/m 17,3 km/h
NW (3 Bft)
0,03 h 0,03 h 49,0 km/h
NW (6 Bft)
Durchschnitt _ 18,8 C 13,3 C 0,8 UV-I 1,9 C 48 % 71 % 35 % 1013,3 hPa #11,8 l/m 3,8 km/h (1 Bft) #48:53 h #4:36 h 7,4 km/h (2 Bft)
© 2012 W. Hausmann